Live WebCam Live WebCam



No particular awareness of the weather is required.    There are no Weather-warnings

Nearby METAR Reports

  
ENBR - Bergen/Flesland, Norway
Distance from station: E 6km
Updated: 23-10-2017 01:50
Mostly Cloudy
Mostly Cloudy  
 Wind from E
Wind: E 6 km/h
Temperature:  10°C
Dew Point:  3°C
Humidity:  62%
Barometer:  1012 hPa
Clouds:  Mostly Cloudy
Visibility:  10 km
Cloud details:  Few Clouds 1524 m
Mostly Cloudy 1829 m
2017/10/22 23:50 ENBR 222350Z 10003KT 9999 FEW050 BKN060 10/03 Q1012 RMK WIND 1200FT 12007KT
ENSO - Stord/Soerstokke, Norway
Distance from station: SSE 56km
Updated: 22-10-2017 19:20
NOT Current
Clear
Clear  
 Wind from E
Wind: E 15 km/h
Temperature:  13°C
Dew Point:  3°C
Humidity:  51%
Barometer:  1009 hPa
Summary:  Clear
Visibility:  greater than 10 km
2017/10/22 17:20 ENSO 221720Z 08008KT 020V120 CAVOK 13/03 Q1009
ENQA - Troll-A Heli, Norway
Distance from station: WNW 87km
Updated: 23-10-2017 01:50
Overcast
Overcast  
 Wind from SE
Wind: SE 17 km/h
Temperature:  12°C
Dew Point:  6°C
Humidity:  67%
Barometer:  1013 hPa
Clouds:  Overcast
Visibility:  16 miles
Cloud details:  Overcast 1859 m
2017/10/22 23:50 ENQA 222350Z AUTO 13009KT 9999NDV OVC061/// 12/06 Q1013 W10/S4
ENHD - Haugesund/Karmoy, Norway
Distance from station: S 103km
Updated: 23-10-2017 01:50
Mostly Cloudy
Mostly Cloudy  
 Wind from E
Wind: E 22 km/h
Temperature:  11°C
Dew Point:  2°C
Humidity:  54%
Barometer:  1012 hPa
Clouds:  Mostly Cloudy
Visibility:  10 km
Cloud details:  Few Clouds 2195 m
Partly Cloudy 2743 m
Mostly Cloudy 3353 m
2017/10/22 23:50 ENHD 222350Z AUTO 08012KT 9999 FEW072/// SCT090/// BKN110/// 11/02 Q1012
ENQC - Troll-C Heli, Norway
Distance from station: NW 106km
Updated: 23-10-2017 01:50
Mostly Cloudy
Mostly Cloudy  
 Wind from ESE
Wind: ESE 22 km/h
Temperature:  12°C
Dew Point:  7°C
Humidity:  72%
Barometer:  1012 hPa
Clouds:  Mostly Cloudy
Visibility:  16 miles
Cloud details:  Mostly Cloudy 1890 m
2017/10/22 23:50 ENQC 222350Z AUTO 12012KT 9999NDV BKN062/// 12/07 Q1012 W///S4
ENOA - Oseberg, Norway
Distance from station: WNW 128km
Updated: 23-10-2017 01:50
Clear
Clear  
 Wind from SSE
Wind: SSE 20 km/h
Temperature:  12°C
Dew Point:  8°C
Humidity:  77%
Barometer:  1012 hPa
Summary:  Clear
Visibility:  greater than 10 km
2017/10/22 23:50 ENOA 222350Z 15011KT 100V170 CAVOK 12/08 Q1012 W///S4
ENBL - Forde/Bringeland, Norway
Distance from station: NNE 130km
Updated: 22-10-2017 23:20
NOT Current
Clear
Clear  
 Wind from varies
Wind: varies 4 km/h
Temperature:  9°C
Dew Point:  2°C
Humidity:  62%
Barometer:  1013 hPa
Summary:  Clear
Visibility:  greater than 10 km
2017/10/22 21:20 ENBL 222120Z VRB02KT CAVOK 09/02 Q1013
ENFL - Floro, Norway
Distance from station: N 144km
Updated: 23-10-2017 01:50
Overcast
Overcast  
 Wind from E
Wind: E 9 km/h
Temperature:  10°C
Wind Chill:  9°C
Dew Point:  5°C
Humidity:  71%
Barometer:  1013 hPa
Clouds:  Overcast
Visibility:  16 miles
Cloud details:  Overcast 3658 m
2017/10/22 23:50 ENFL 222350Z AUTO 09005KT 060V120 9999NDV OVC120/// 10/05 Q1013
ENSG - Sogndal/Haukasen, Norway
Distance from station: NE 145km
Updated: 22-10-2017 19:50
NOT Current
Mostly Cloudy
Mostly Cloudy  
 Wind from NNE
Wind: NNE 15 km/h
Temperature:  6°C
Wind Chill:  3°C
Dew Point:  0°C
Humidity:  66%
Barometer:  1014 hPa
Clouds:  Mostly Cloudy
Visibility:  10 km
Cloud details:  Mostly Cloudy 1280 m
2017/10/22 17:50 ENSG 221750Z 03008KT 9999 BKN042 06/M00 Q1014 RMK WIND 3806FT 10016KT
ENZV - Stavanger/Sola(A, Norway
Distance from station: S 159km
Updated: 23-10-2017 01:50
Mostly Cloudy
Mostly Cloudy  
 Wind from varies
Wind: varies 4 km/h
Temperature:  9°C
Dew Point:  2°C
Humidity:  62%
Barometer:  1012 hPa
Clouds:  Mostly Cloudy
Visibility:  10 km
Cloud details:  Few Clouds 1524 m
Mostly Cloudy 2896 m
2017/10/22 23:50 ENZV 222350Z VRB02KT 9999 FEW050 BKN095 09/02 Q1012
ENHM - Heimdal Oilp, Norway
Distance from station: WSW 179km
Updated: 23-10-2017 01:50
Clear
Clear  
 Wind from ESE
Wind: ESE 35 km/h
Temperature:  11°C
Dew Point:  8°C
Humidity:  82%
Barometer:  1011 hPa
Clouds:  Clear
Visibility:  16 miles
2017/10/22 23:50 ENHM 222350Z AUTO 12019KT 9999NDV NCD 11/08 Q1011 W11/S4
ENSD - Sandane/Anda, Norway
Distance from station: NNE 180km
Updated: 22-10-2017 20:50
NOT Current
Mostly Cloudy
Mostly Cloudy  
 Wind from SE
Wind: SE 11 km/h
Temperature:  11°C
Dew Point:  4°C
Humidity:  62%
Barometer:  1012 hPa
Clouds:  Mostly Cloudy
Visibility:  10 km
Cloud details:  Few Clouds 1676 m
Mostly Cloudy 2438 m
2017/10/22 18:50 ENSD 221850Z 13006KT 070V190 9999 FEW055 BKN080 11/04 Q1012 RMK WIND 1138FT 06009KT

Script developed by  Saratoga-weather.org Adapted for the template by  Weerstation Leuven